Time;durP1;ratioP1;P1;durP2;ratioP2;P2;SDS_P1;SDS_P2;PMS_P1;PMS_P2;Temp;Humidity;BMP_temperature;BMP_pressure;BME280_temperature;BME280_humidity;BME280_pressure;Samples;Min_cycle;Max_cycle;Signal;HPM_P1;HPM_P2
2021/10/16 00:00:38;;;;;;;4.32;1.00;;;8.20;90.10;;;;;;2079911;28;20069;-93
2021/10/16 00:01:39;;;;;;;3.13;0.90;;;8.20;90.10;;;;;;2084161;28;20400;-93
2021/10/16 00:02:40;;;;;;;2.85;1.00;;;8.20;90.10;;;;;;2081170;28;20041;-93
2021/10/16 00:03:41;;;;;;;4.18;1.13;;;8.20;90.00;;;;;;2081595;28;20029;-92
2021/10/16 00:04:41;;;;;;;3.00;0.85;;;8.20;90.10;;;;;;2073842;28;20413;-93
2021/10/16 00:05:44;;;;;;;4.53;0.88;;;8.20;90.00;;;;;;2068167;28;20038;-93
2021/10/16 00:06:44;;;;;;;3.28;0.85;;;8.20;90.00;;;;;;2073507;28;20030;-93
2021/10/16 00:07:45;;;;;;;3.55;1.00;;;8.20;90.00;;;;;;2064715;28;20071;-92
2021/10/16 00:08:46;;;;;;;3.67;1.00;;;8.20;90.00;;;;;;2057376;28;20457;-93
2021/10/16 00:09:46;;;;;;;3.35;0.90;;;8.10;90.00;;;;;;2070606;28;20068;-94
2021/10/16 00:10:47;;;;;;;3.78;0.90;;;8.10;90.10;;;;;;2081479;28;20048;-93
2021/10/16 00:11:47;;;;;;;3.08;0.80;;;8.10;90.10;;;;;;2072547;28;20057;-93
2021/10/16 00:12:48;;;;;;;2.92;0.90;;;8.10;90.10;;;;;;2084095;28;20048;-93
2021/10/16 00:13:49;;;;;;;3.20;0.90;;;8.10;90.10;;;;;;2077435;28;20030;-92
2021/10/16 00:14:50;;;;;;;3.50;0.93;;;8.10;90.10;;;;;;2075231;28;20069;-92
2021/10/16 00:15:50;;;;;;;4.18;0.80;;;8.10;90.00;;;;;;2082482;28;20487;-92
2021/10/16 00:16:51;;;;;;;4.93;1.10;;;8.10;90.00;;;;;;2081912;28;20084;-94
2021/10/16 00:17:52;;;;;;;3.72;1.00;;;8.10;90.10;;;;;;2086417;28;20039;-93
2021/10/16 00:18:53;;;;;;;5.13;1.23;;;8.10;90.10;;;;;;2089467;28;20123;-93
2021/10/16 00:19:54;;;;;;;3.05;0.90;;;8.10;90.10;;;;;;2089269;28;20060;-94
2021/10/16 00:20:56;;;;;;;3.83;0.90;;;8.00;90.10;;;;;;2090277;28;20116;-93
2021/10/16 00:21:57;;;;;;;2.13;0.80;;;8.00;90.10;;;;;;2085380;28;20033;-92
2021/10/16 00:22:57;;;;;;;3.50;0.70;;;8.00;90.10;;;;;;2093734;28;20033;-92
2021/10/16 00:23:58;;;;;;;3.13;1.00;;;8.00;90.10;;;;;;2089255;28;20036;-93
2021/10/16 00:24:59;;;;;;;2.88;0.75;;;8.00;90.20;;;;;;2087287;28;20460;-92
2021/10/16 00:25:59;;;;;;;3.25;0.70;;;8.00;90.20;;;;;;2086125;28;20057;-93
2021/10/16 00:27:00;;;;;;;3.90;0.90;;;8.00;90.30;;;;;;2088070;28;20048;-92
2021/10/16 00:28:01;;;;;;;3.42;0.80;;;7.90;90.20;;;;;;2091132;28;20048;-92
2021/10/16 00:29:02;;;;;;;3.50;0.95;;;7.90;90.20;;;;;;2096479;28;20056;-92
2021/10/16 00:30:04;;;;;;;4.50;1.10;;;7.90;90.20;;;;;;2090788;28;20050;-93
2021/10/16 00:31:04;;;;;;;3.42;1.00;;;7.90;90.30;;;;;;2085164;28;20110;-93
2021/10/16 00:32:05;;;;;;;2.47;0.80;;;7.90;90.30;;;;;;2067701;28;20527;-92
2021/10/16 00:33:06;;;;;;;4.78;1.10;;;7.90;90.30;;;;;;2066329;28;20109;-92
2021/10/16 00:34:07;;;;;;;2.53;0.88;;;7.80;90.30;;;;;;2073834;28;20118;-93
2021/10/16 00:35:08;;;;;;;4.57;1.00;;;7.80;90.30;;;;;;2081548;28;20046;-92
2021/10/16 00:36:10;;;;;;;3.00;0.82;;;7.80;90.30;;;;;;2088992;28;20045;-92
2021/10/16 00:37:11;;;;;;;3.38;1.00;;;7.80;90.30;;;;;;2095388;28;20029;-92
2021/10/16 00:38:11;;;;;;;3.03;0.80;;;7.80;90.30;;;;;;2096380;28;20076;-93
2021/10/16 00:39:12;;;;;;;2.67;1.00;;;7.80;90.30;;;;;;2080706;28;20045;-92
2021/10/16 00:40:13;;;;;;;2.38;0.70;;;7.80;90.30;;;;;;2073408;28;20124;-94
2021/10/16 00:41:13;;;;;;;3.03;0.80;;;7.80;90.30;;;;;;2065256;28;20085;-92
2021/10/16 00:42:14;;;;;;;2.78;0.90;;;7.80;90.30;;;;;;2065895;28;20120;-92
2021/10/16 00:43:14;;;;;;;3.92;0.80;;;7.70;90.30;;;;;;2065218;28;20488;-93
2021/10/16 00:44:22;;;;;;;4.18;0.90;;;7.80;90.30;;;;;;2065338;28;20073;-92
2021/10/16 00:45:24;;;;;;;3.47;0.95;;;7.80;90.40;;;;;;2081816;28;20060;-92
2021/10/16 00:46:25;;;;;;;3.35;0.85;;;7.70;90.30;;;;;;2083020;28;20034;-92
2021/10/16 00:47:26;;;;;;;3.30;0.95;;;7.70;90.30;;;;;;2081903;28;20037;-92
2021/10/16 00:48:26;;;;;;;5.00;1.13;;;7.70;90.30;;;;;;2067246;28;20097;-93
2021/10/16 00:49:29;;;;;;;1.70;0.70;;;7.70;90.40;;;;;;2074708;28;20583;-92
2021/10/16 00:50:31;;;;;;;4.18;0.90;;;7.70;90.40;;;;;;2086931;28;20065;-94
2021/10/16 00:51:33;;;;;;;2.53;1.00;;;7.70;90.40;;;;;;2075108;28;20185;-92
2021/10/16 00:52:35;;;;;;;2.53;0.88;;;7.70;90.40;;;;;;2074758;28;20026;-93
2021/10/16 00:53:35;;;;;;;3.08;0.70;;;7.70;90.40;;;;;;2083459;28;20038;-92
2021/10/16 00:54:36;;;;;;;3.22;0.80;;;7.70;90.40;;;;;;2083142;28;20049;-93
2021/10/16 00:55:37;;;;;;;3.45;0.82;;;7.60;90.40;;;;;;2088275;28;20034;-93
2021/10/16 00:56:42;;;;;;;3.75;0.90;;;7.60;90.40;;;;;;2091441;28;20029;-93
2021/10/16 00:57:44;;;;;;;2.95;0.98;;;7.60;90.50;;;;;;2091677;28;20418;-93
2021/10/16 00:58:44;;;;;;;4.13;1.10;;;7.60;90.50;;;;;;2082826;28;20033;-92
2021/10/16 00:59:45;;;;;;;2.92;0.82;;;7.60;90.50;;;;;;2074169;28;20042;-93
2021/10/16 01:00:46;;;;;;;3.38;0.90;;;7.60;90.50;;;;;;2077956;28;20057;-92
2021/10/16 01:01:47;;;;;;;3.45;1.10;;;7.60;90.50;;;;;;2091702;28;20033;-92
2021/10/16 01:02:49;;;;;;;3.10;0.90;;;7.60;90.50;;;;;;2088382;28;20041;-92
2021/10/16 01:03:49;;;;;;;2.67;0.98;;;7.60;90.50;;;;;;2074909;28;20042;-92
2021/10/16 01:04:50;;;;;;;4.72;1.00;;;7.60;90.50;;;;;;2075023;28;20038;-92
2021/10/16 01:05:51;;;;;;;4.28;0.98;;;7.60;90.50;;;;;;2074472;28;20497;-93
2021/10/16 01:06:52;;;;;;;3.72;1.10;;;7.60;90.50;;;;;;2066570;28;20269;-92
2021/10/16 01:07:52;;;;;;;3.50;0.80;;;7.60;90.50;;;;;;2076778;28;20037;-92
2021/10/16 01:08:55;;;;;;;4.45;1.00;;;7.60;90.50;;;;;;2082975;28;20100;-92
2021/10/16 01:09:56;;;;;;;3.75;0.80;;;7.60;90.50;;;;;;2082356;28;20071;-93
2021/10/16 01:10:58;;;;;;;4.65;1.00;;;7.60;90.50;;;;;;2088423;28;20039;-92
2021/10/16 01:11:58;;;;;;;4.72;1.15;;;7.60;90.50;;;;;;2082771;28;20038;-93
2021/10/16 01:13:00;;;;;;;2.40;0.98;;;7.50;90.50;;;;;;2074440;28;20467;-93
2021/10/16 01:14:11;;;;;;;4.72;1.50;;;7.60;90.50;;;;;;2074676;28;20040;-92
2021/10/16 01:15:16;;;;;;;4.60;0.90;;;7.50;90.50;;;;;;2083085;28;20068;-93
2021/10/16 01:16:17;;;;;;;3.60;0.75;;;7.50;90.50;;;;;;2083140;28;20025;-92
2021/10/16 01:17:18;;;;;;;2.70;0.93;;;7.50;90.60;;;;;;2066574;28;20039;-92
2021/10/16 01:18:22;;;;;;;3.72;1.00;;;7.50;90.60;;;;;;2069380;28;20038;-93
2021/10/16 01:19:25;;;;;;;1.73;0.70;;;7.50;90.60;;;;;;2058141;28;20035;-93
2021/10/16 01:20:27;;;;;;;2.15;0.80;;;7.50;90.60;;;;;;2066341;28;20150;-92
2021/10/16 01:21:30;;;;;;;2.88;0.80;;;7.50;90.50;;;;;;2074165;28;20436;-94
2021/10/16 01:22:32;;;;;;;2.50;0.90;;;7.50;90.50;;;;;;2077735;28;20029;-92
2021/10/16 01:23:34;;;;;;;2.20;0.88;;;7.50;90.50;;;;;;2085396;28;20045;-94
2021/10/16 01:24:36;;;;;;;2.63;0.90;;;7.50;90.50;;;;;;2073267;28;20038;-92
2021/10/16 01:25:37;;;;;;;3.53;0.90;;;7.50;90.50;;;;;;2064588;28;20125;-91
2021/10/16 01:26:40;;;;;;;2.08;0.80;;;7.50;90.50;;;;;;2072242;28;20038;-94
2021/10/16 01:27:42;;;;;;;3.58;1.00;;;7.50;90.50;;;;;;2074840;28;20038;-93
2021/10/16 01:28:43;;;;;;;2.90;1.02;;;7.50;90.40;;;;;;2079641;28;20037;-92
2021/10/16 01:29:44;;;;;;;2.90;1.10;;;7.40;90.40;;;;;;2075801;28;20038;-93
2021/10/16 01:30:45;;;;;;;3.85;1.08;;;7.40;90.40;;;;;;2074461;28;20046;-92
2021/10/16 01:31:46;;;;;;;3.95;1.30;;;7.30;90.40;;;;;;2076297;28;20116;-93
2021/10/16 01:32:47;;;;;;;2.95;1.05;;;7.30;90.50;;;;;;2082223;28;20030;-92
2021/10/16 01:33:48;;;;;;;6.38;1.40;;;7.30;90.50;;;;;;2082384;28;20125;-92
2021/10/16 01:34:48;;;;;;;4.80;1.00;;;7.20;90.60;;;;;;2082315;28;20053;-92
2021/10/16 01:36:18;;;;;;;4.50;1.25;;;7.20;90.60;;;;;;2082202;28;20124;-92
2021/10/16 01:37:19;;;;;;;3.28;1.15;;;7.20;90.60;;;;;;2065882;28;20037;-92
2021/10/16 01:38:19;;;;;;;3.72;1.25;;;7.20;90.60;;;;;;2068384;28;20080;-92
2021/10/16 01:39:21;;;;;;;2.97;0.98;;;7.20;90.60;;;;;;2066465;28;20058;-92
2021/10/16 01:40:22;;;;;;;3.95;1.40;;;7.20;90.60;;;;;;2058336;28;20549;-92
2021/10/16 01:41:22;;;;;;;4.45;1.27;;;7.20;90.60;;;;;;2075946;28;20175;-92
2021/10/16 01:42:23;;;;;;;2.92;1.13;;;7.20;90.60;;;;;;2079739;28;20034;-92
2021/10/16 01:43:24;;;;;;;4.38;1.10;;;7.20;90.60;;;;;;2074003;28;20077;-92
2021/10/16 01:44:25;;;;;;;3.45;1.10;;;7.20;90.60;;;;;;2073110;28;20034;-92
2021/10/16 01:45:26;;;;;;;2.17;1.10;;;7.20;90.60;;;;;;2066348;28;20057;-92
2021/10/16 01:46:27;;;;;;;3.20;1.10;;;7.20;90.50;;;;;;2075363;28;20414;-92
2021/10/16 01:47:27;;;;;;;3.97;1.25;;;7.20;90.50;;;;;;2072767;28;20034;-92
2021/10/16 01:48:28;;;;;;;3.00;1.20;;;7.20;90.50;;;;;;2078045;28;20037;-92
2021/10/16 01:49:29;;;;;;;2.92;1.30;;;7.20;90.80;;;;;;2082341;28;20051;-92
2021/10/16 01:50:40;;;;;;;3.05;1.20;;;7.20;90.50;;;;;;2073917;28;20046;-92
2021/10/16 01:51:42;;;;;;;4.25;1.00;;;7.20;90.50;;;;;;2075081;28;20093;-92
2021/10/16 01:52:43;;;;;;;3.22;1.30;;;7.20;90.80;;;;;;2083114;28;20507;-93
2021/10/16 01:53:46;;;;;;;4.10;1.50;;;7.20;90.50;;;;;;2085077;28;20033;-92
2021/10/16 01:54:47;;;;;;;5.85;1.50;;;7.20;90.50;;;;;;2090830;28;20118;-92
2021/10/16 01:55:48;;;;;;;3.53;1.15;;;7.20;90.50;;;;;;2082113;28;20088;-93
2021/10/16 01:56:48;;;;;;;4.75;1.17;;;7.20;90.50;;;;;;2082372;28;20034;-93
2021/10/16 01:57:50;;;;;;;3.90;1.30;;;7.20;90.50;;;;;;2079383;28;20053;-93
2021/10/16 01:58:50;;;;;;;3.30;1.08;;;7.20;90.50;;;;;;2074099;28;20046;-92
2021/10/16 01:59:51;;;;;;;3.55;1.15;;;7.20;90.60;;;;;;2082662;28;20115;-92
2021/10/16 02:00:51;;;;;;;4.47;1.20;;;7.20;90.60;;;;;;2085071;28;20140;-92
2021/10/16 02:01:53;;;;;;;4.07;1.30;;;7.20;90.70;;;;;;2082300;28;20060;-92
2021/10/16 02:02:54;;;;;;;4.20;1.20;;;7.20;90.60;;;;;;2090431;28;20136;-92
2021/10/16 02:03:54;;;;;;;3.30;1.30;;;7.20;90.60;;;;;;2090450;28;20037;-92
2021/10/16 02:04:55;;;;;;;2.67;0.85;;;7.20;90.60;;;;;;2083041;28;20061;-92
2021/10/16 02:05:56;;;;;;;3.30;1.20;;;7.20;90.60;;;;;;2081589;28;20072;-93
2021/10/16 02:06:56;;;;;;;6.13;1.17;;;7.20;90.70;;;;;;2091097;28;20423;-92
2021/10/16 02:07:57;;;;;;;4.47;1.27;;;7.20;90.90;;;;;;2090970;28;20174;-92
2021/10/16 02:08:58;;;;;;;2.78;1.10;;;7.20;90.70;;;;;;2074054;28;20582;-93
2021/10/16 02:09:58;;;;;;;5.07;1.50;;;7.20;90.90;;;;;;2065381;28;20046;-92
2021/10/16 02:10:59;;;;;;;3.78;0.93;;;7.30;90.70;;;;;;2070037;28;20038;-91
2021/10/16 02:12:00;;;;;;;3.65;1.10;;;7.30;90.70;;;;;;2090440;28;20033;-92
2021/10/16 02:13:00;;;;;;;5.22;1.40;;;7.30;90.60;;;;;;2081774;28;20049;-92
2021/10/16 02:14:02;;;;;;;2.90;1.08;;;7.30;90.60;;;;;;2068993;28;20073;-92
2021/10/16 02:15:03;;;;;;;3.13;1.00;;;7.30;90.60;;;;;;2066570;28;20046;-92
2021/10/16 02:16:04;;;;;;;3.03;0.93;;;7.30;90.60;;;;;;2074867;28;20590;-92
2021/10/16 02:17:04;;;;;;;3.83;1.02;;;7.30;90.60;;;;;;2065306;28;20065;-91
2021/10/16 02:18:05;;;;;;;3.42;1.02;;;7.30;90.70;;;;;;2074013;28;20463;-91
2021/10/16 02:19:06;;;;;;;2.58;1.00;;;7.30;90.70;;;;;;2090874;28;20392;-92
2021/10/16 02:20:07;;;;;;;4.10;1.50;;;7.30;90.70;;;;;;2090043;28;20096;-92
2021/10/16 02:21:07;;;;;;;4.13;1.30;;;7.30;90.70;;;;;;2077354;28;20058;-92
2021/10/16 02:22:09;;;;;;;4.28;1.15;;;7.30;90.70;;;;;;2067016;28;20062;-91
2021/10/16 02:23:09;;;;;;;4.90;1.10;;;7.30;90.70;;;;;;2073798;28;20428;-92
2021/10/16 02:24:10;;;;;;;4.03;1.10;;;7.30;90.70;;;;;;2082260;28;20034;-93
2021/10/16 02:25:10;;;;;;;4.28;1.30;;;7.30;90.70;;;;;;2073892;28;20137;-92
2021/10/16 02:26:11;;;;;;;2.30;0.90;;;7.30;90.70;;;;;;2073629;28;20038;-92
2021/10/16 02:27:12;;;;;;;3.90;1.33;;;7.30;91.00;;;;;;2065440;28;20145;-93
2021/10/16 02:28:12;;;;;;;2.88;1.00;;;7.30;90.70;;;;;;2082242;28;20615;-92
2021/10/16 02:29:13;;;;;;;4.40;1.15;;;7.30;90.70;;;;;;2081236;28;20033;-93
2021/10/16 02:30:14;;;;;;;3.60;1.10;;;7.30;90.70;;;;;;2075437;28;20034;-92
2021/10/16 02:31:15;;;;;;;4.65;1.35;;;7.30;90.70;;;;;;2083015;28;20037;-92
2021/10/16 02:32:15;;;;;;;4.70;1.20;;;7.40;90.70;;;;;;2083332;28;20037;-93
2021/10/16 02:33:16;;;;;;;3.25;0.95;;;7.40;90.70;;;;;;2087985;28;20120;-92
2021/10/16 02:34:17;;;;;;;4.38;1.33;;;7.40;90.70;;;;;;2074049;28;20041;-92
2021/10/16 02:35:17;;;;;;;2.35;0.80;;;7.40;90.70;;;;;;2075009;28;20038;-92
2021/10/16 02:36:18;;;;;;;5.22;1.15;;;7.50;90.70;;;;;;2073808;28;20183;-93
2021/10/16 02:37:18;;;;;;;2.60;0.80;;;7.50;90.60;;;;;;2072271;28;20034;-92
2021/10/16 02:38:19;;;;;;;4.75;1.02;;;7.50;90.60;;;;;;2090712;28;20056;-92
2021/10/16 02:39:20;;;;;;;4.53;1.23;;;7.50;90.60;;;;;;2081974;28;20136;-92
2021/10/16 02:40:20;;;;;;;3.05;1.10;;;7.50;90.60;;;;;;2081138;28;20132;-93
2021/10/16 02:41:21;;;;;;;2.97;0.90;;;7.60;90.60;;;;;;2080938;28;20033;-92
2021/10/16 02:42:23;;;;;;;2.45;0.93;;;7.60;90.60;;;;;;2085503;28;20681;-92
2021/10/16 02:43:23;;;;;;;4.45;1.25;;;7.60;90.60;;;;;;2087140;28;20030;-92
2021/10/16 02:44:25;;;;;;;3.15;1.00;;;7.60;90.60;;;;;;2082037;28;20037;-92
2021/10/16 02:45:26;;;;;;;3.05;1.00;;;7.60;90.60;;;;;;2073567;28;20029;-93
2021/10/16 02:46:26;;;;;;;3.47;0.93;;;7.60;90.60;;;;;;2073901;28;20060;-92
2021/10/16 02:47:30;;;;;;;2.70;1.10;;;7.60;90.60;;;;;;2090675;28;20100;-93
2021/10/16 02:48:31;;;;;;;2.95;0.98;;;7.60;90.60;;;;;;2090333;28;20403;-94
2021/10/16 02:49:32;;;;;;;2.88;1.00;;;7.60;90.60;;;;;;2091189;28;20037;-92
2021/10/16 02:50:32;;;;;;;3.60;1.13;;;7.60;90.60;;;;;;2081502;28;20572;-93
2021/10/16 02:51:33;;;;;;;3.58;0.90;;;7.60;90.50;;;;;;2085069;28;20037;-92
2021/10/16 02:52:34;;;;;;;3.85;1.02;;;7.60;90.60;;;;;;2089351;28;20026;-92
2021/10/16 02:53:35;;;;;;;2.97;1.20;;;7.60;90.60;;;;;;2089580;28;20096;-92
2021/10/16 02:54:36;;;;;;;4.38;1.05;;;7.60;90.60;;;;;;2095411;28;20048;-82
2021/10/16 02:55:38;;;;;;;3.90;1.20;;;7.60;90.60;;;;;;2083686;28;20058;-90
2021/10/16 02:56:38;;;;;;;4.75;1.10;;;7.70;90.60;;;;;;2077441;28;20085;-91
2021/10/16 02:57:39;;;;;;;4.05;1.27;;;7.70;90.60;;;;;;2083312;28;20029;-92
2021/10/16 02:58:39;;;;;;;3.63;1.08;;;7.70;90.60;;;;;;2083855;28;20037;-93
2021/10/16 02:59:40;;;;;;;5.32;1.23;;;7.70;90.60;;;;;;2091773;28;20036;-92
2021/10/16 03:00:41;;;;;;;3.25;1.10;;;7.70;90.50;;;;;;2093203;28;20394;-92
2021/10/16 03:01:41;;;;;;;3.22;1.27;;;7.70;90.50;;;;;;2096419;28;20033;-92
2021/10/16 03:02:42;;;;;;;3.40;1.23;;;7.70;90.60;;;;;;2090163;28;20036;-94
2021/10/16 03:03:42;;;;;;;3.28;0.88;;;7.70;90.80;;;;;;2089924;28;20116;-92
2021/10/16 03:04:43;;;;;;;3.22;0.95;;;7.80;90.50;;;;;;2090058;28;20032;-93
2021/10/16 03:05:44;;;;;;;2.97;0.90;;;7.80;90.50;;;;;;2081407;28;20083;-92
2021/10/16 03:06:44;;;;;;;3.47;1.10;;;7.80;90.50;;;;;;2083663;28;20187;-92
2021/10/16 03:07:45;;;;;;;4.38;1.23;;;7.70;90.50;;;;;;2090683;28;20124;-92
2021/10/16 03:08:45;;;;;;;4.93;1.23;;;7.80;90.50;;;;;;2073641;28;20042;-94
2021/10/16 03:09:46;;;;;;;3.08;0.90;;;7.80;90.60;;;;;;2065394;28;20065;-93
2021/10/16 03:10:47;;;;;;;4.60;1.40;;;7.80;90.60;;;;;;2073703;28;20049;-92
2021/10/16 03:11:47;;;;;;;3.22;1.02;;;7.80;90.60;;;;;;2092942;28;20075;-93
2021/10/16 03:12:48;;;;;;;3.85;1.00;;;7.80;90.60;;;;;;2089734;28;20068;-93
2021/10/16 03:13:48;;;;;;;2.65;0.85;;;7.80;90.60;;;;;;2080214;28;20060;-94
2021/10/16 03:14:50;;;;;;;2.50;1.00;;;7.80;90.60;;;;;;2089760;28;20060;-92
2021/10/16 03:15:51;;;;;;;2.95;0.93;;;7.80;90.90;;;;;;2087480;28;20037;-92
2021/10/16 03:16:51;;;;;;;3.45;1.00;;;7.80;90.90;;;;;;2080709;28;20541;-93
2021/10/16 03:17:52;;;;;;;2.75;0.95;;;7.90;90.60;;;;;;2086707;28;20065;-92
2021/10/16 03:18:53;;;;;;;3.97;1.20;;;7.90;90.60;;;;;;2081508;28;20404;-93
2021/10/16 03:19:53;;;;;;;4.18;1.30;;;7.90;90.60;;;;;;2083960;28;20091;-94
2021/10/16 03:20:54;;;;;;;2.75;1.00;;;7.90;90.60;;;;;;2081812;28;20523;-93
2021/10/16 03:21:56;;;;;;;3.05;1.00;;;7.90;90.60;;;;;;2081559;28;20432;-94
2021/10/16 03:22:57;;;;;;;4.63;0.95;;;7.90;90.60;;;;;;2097645;28;20040;-92
2021/10/16 03:23:58;;;;;;;3.45;0.85;;;7.90;90.90;;;;;;2098746;28;20032;-92
2021/10/16 03:24:58;;;;;;;2.25;1.00;;;7.90;90.60;;;;;;2098884;28;20046;-92
2021/10/16 03:25:59;;;;;;;3.25;0.82;;;8.00;90.70;;;;;;2087324;28;20100;-94
2021/10/16 03:27:00;;;;;;;4.05;1.30;;;8.00;90.60;;;;;;2081375;28;20037;-94
2021/10/16 03:28:00;;;;;;;3.92;1.20;;;8.00;90.60;;;;;;2086669;28;20531;-95
2021/10/16 03:29:01;;;;;;;3.83;1.08;;;8.00;90.60;;;;;;2084259;28;20037;-92
2021/10/16 03:30:03;;;;;;;3.00;1.08;;;8.00;90.60;;;;;;2069278;28;20082;-93
2021/10/16 03:31:04;;;;;;;3.45;0.90;;;8.00;90.60;;;;;;2077768;28;20127;-94
2021/10/16 03:32:04;;;;;;;2.90;0.90;;;8.00;90.60;;;;;;2094568;28;20033;-92
2021/10/16 03:33:06;;;;;;;4.53;1.30;;;8.00;90.60;;;;;;2099086;28;20032;-94
2021/10/16 03:34:07;;;;;;;3.80;1.23;;;8.00;90.70;;;;;;2102900;28;20032;-93
2021/10/16 03:35:08;;;;;;;2.92;1.13;;;8.00;90.60;;;;;;2103565;28;20041;-92
2021/10/16 03:36:08;;;;;;;2.83;1.08;;;8.10;90.60;;;;;;2099478;28;20056;-93
2021/10/16 03:37:09;;;;;;;3.85;1.30;;;8.10;90.70;;;;;;2084978;28;20068;-93
2021/10/16 03:38:10;;;;;;;4.68;1.20;;;8.10;90.70;;;;;;2089169;28;20059;-94
2021/10/16 03:39:11;;;;;;;4.90;1.40;;;8.00;90.70;;;;;;2072632;28;20500;-94
2021/10/16 03:40:11;;;;;;;3.33;1.08;;;8.10;90.70;;;;;;2079310;28;20097;-93
2021/10/16 03:41:12;;;;;;;3.63;1.08;;;8.10;90.70;;;;;;2090171;28;20053;-93
2021/10/16 03:42:13;;;;;;;3.88;1.10;;;8.10;90.70;;;;;;2090456;28;20435;-92
2021/10/16 03:43:13;;;;;;;3.78;1.00;;;8.10;90.70;;;;;;2073873;28;20483;-93
2021/10/16 03:44:14;;;;;;;3.70;1.05;;;8.10;90.70;;;;;;2075736;28;20038;-93
2021/10/16 03:45:15;;;;;;;3.20;1.17;;;8.10;90.60;;;;;;2083486;28;20037;-92
2021/10/16 03:46:15;;;;;;;3.28;1.10;;;8.10;90.60;;;;;;2075139;28;20052;-94
2021/10/16 03:47:16;;;;;;;3.72;1.17;;;8.10;90.60;;;;;;2088782;28;20040;-92
2021/10/16 03:48:17;;;;;;;2.45;1.10;;;8.10;90.60;;;;;;2095185;28;20052;-93
2021/10/16 03:49:17;;;;;;;2.78;0.93;;;8.20;90.70;;;;;;2081604;28;20065;-93
2021/10/16 03:50:18;;;;;;;3.22;0.93;;;8.20;90.70;;;;;;2081349;28;20038;-93
2021/10/16 03:51:18;;;;;;;4.88;1.30;;;8.20;90.70;;;;;;2081181;28;20132;-93
2021/10/16 03:52:19;;;;;;;2.90;1.20;;;8.20;90.70;;;;;;2081605;28;20037;-92
2021/10/16 03:53:20;;;;;;;5.15;1.50;;;8.20;90.70;;;;;;2090005;28;20040;-92
2021/10/16 03:54:20;;;;;;;4.72;1.20;;;8.20;90.70;;;;;;2083129;28;20045;-93
2021/10/16 03:55:21;;;;;;;4.07;0.95;;;8.20;90.70;;;;;;2062387;28;20043;-94
2021/10/16 03:56:22;;;;;;;4.78;1.42;;;8.20;90.70;;;;;;2064716;28;20524;-93
2021/10/16 03:57:23;;;;;;;3.95;1.30;;;8.20;90.70;;;;;;2073782;28;20045;-92
2021/10/16 03:58:23;;;;;;;4.15;1.27;;;8.20;91.00;;;;;;2081988;28;20434;-93
2021/10/16 03:59:24;;;;;;;3.83;1.08;;;8.20;90.70;;;;;;2073221;28;20477;-92
2021/10/16 04:00:25;;;;;;;2.38;0.98;;;8.30;90.80;;;;;;2075245;28;20034;-93
2021/10/16 04:01:26;;;;;;;3.00;1.00;;;8.20;90.80;;;;;;2082301;28;20041;-92
2021/10/16 04:02:27;;;;;;;3.80;1.13;;;8.20;90.80;;;;;;2078843;28;20121;-92
2021/10/16 04:03:29;;;;;;;3.47;1.27;;;8.20;90.70;;;;;;2081011;28;20073;-94
2021/10/16 04:04:29;;;;;;;3.53;1.10;;;8.30;90.80;;;;;;2099735;28;20032;-93
2021/10/16 04:05:31;;;;;;;4.40;1.40;;;8.30;90.80;;;;;;2098917;28;20057;-93
2021/10/16 04:06:31;;;;;;;4.13;1.20;;;8.30;90.80;;;;;;2094221;28;20531;-93
2021/10/16 04:07:32;;;;;;;4.35;1.30;;;8.30;90.80;;;;;;2081896;28;20041;-93
2021/10/16 04:08:33;;;;;;;4.53;1.20;;;8.30;90.80;;;;;;2081678;28;20462;-93
2021/10/16 04:09:34;;;;;;;3.20;1.13;;;8.30;90.80;;;;;;2081460;28;20037;-92
2021/10/16 04:10:36;;;;;;;5.05;1.38;;;8.30;90.80;;;;;;2073456;28;20042;-92
2021/10/16 04:11:37;;;;;;;3.65;1.05;;;8.30;90.80;;;;;;2089491;28;20044;-94
2021/10/16 04:12:38;;;;;;;4.65;1.30;;;8.30;90.80;;;;;;2081443;28;20113;-93
2021/10/16 04:13:38;;;;;;;2.67;1.00;;;8.40;90.80;;;;;;2084004;28;20087;-92
2021/10/16 04:14:39;;;;;;;2.65;1.08;;;8.40;90.80;;;;;;2081949;28;20045;-92
2021/10/16 04:15:40;;;;;;;3.60;1.13;;;8.40;90.80;;;;;;2074410;28;20592;-93
2021/10/16 04:16:40;;;;;;;3.08;1.20;;;8.40;90.80;;;;;;2073735;28;20050;-92
2021/10/16 04:17:42;;;;;;;4.95;1.60;;;8.40;90.80;;;;;;2081539;28;20069;-93
2021/10/16 04:18:43;;;;;;;2.97;1.20;;;8.40;90.80;;;;;;2085875;28;20072;-93
2021/10/16 04:19:43;;;;;;;3.05;1.00;;;8.40;90.80;;;;;;2081052;28;20396;-91
2021/10/16 04:20:44;;;;;;;3.30;1.10;;;8.40;90.80;;;;;;2065284;28;20065;-93
2021/10/16 04:21:45;;;;;;;4.00;1.15;;;8.40;90.80;;;;;;2073233;28;20030;-92
2021/10/16 04:22:46;;;;;;;4.70;1.40;;;8.40;90.80;;;;;;2080895;28;20111;-93
2021/10/16 04:23:47;;;;;;;2.45;0.90;;;8.40;90.80;;;;;;2065369;28;20034;-94
2021/10/16 04:24:47;;;;;;;4.93;1.20;;;8.40;90.80;;;;;;2072481;28;20041;-92
2021/10/16 04:25:48;;;;;;;3.45;1.60;;;8.40;90.80;;;;;;2080960;28;20515;-93
2021/10/16 04:26:49;;;;;;;4.40;1.77;;;8.40;90.80;;;;;;2083215;28;20076;-92
2021/10/16 04:27:50;;;;;;;4.07;1.55;;;8.40;90.80;;;;;;2082858;28;20037;-92
2021/10/16 04:28:50;;;;;;;3.28;1.27;;;8.40;90.80;;;;;;2083021;28;20471;-92
2021/10/16 04:29:51;;;;;;;5.32;2.00;;;8.40;90.80;;;;;;2083022;28;20040;-93
2021/10/16 04:30:52;;;;;;;4.22;1.70;;;8.40;90.80;;;;;;2089340;28;20029;-92
2021/10/16 04:31:52;;;;;;;5.53;1.73;;;8.40;90.80;;;;;;2089134;28;20089;-93
2021/10/16 04:32:53;;;;;;;5.50;1.80;;;8.40;90.80;;;;;;2098746;28;20044;-94
2021/10/16 04:33:54;;;;;;;4.35;1.60;;;8.40;90.90;;;;;;2082748;28;20088;-93
2021/10/16 04:34:54;;;;;;;4.20;1.40;;;8.40;90.90;;;;;;2087820;28;20084;-93
2021/10/16 04:35:55;;;;;;;3.78;1.27;;;8.40;90.90;;;;;;2098757;28;20119;-93
2021/10/16 04:36:55;;;;;;;4.78;1.88;;;8.40;90.90;;;;;;2090378;28;20128;-92
2021/10/16 04:37:56;;;;;;;4.30;1.80;;;8.40;90.90;;;;;;2091260;28;20068;-93
2021/10/16 04:38:57;;;;;;;5.25;1.58;;;8.50;90.90;;;;;;2090588;28;20033;-93
2021/10/16 04:39:58;;;;;;;3.33;1.52;;;8.40;90.90;;;;;;2091121;28;20124;-93
2021/10/16 04:40:59;;;;;;;4.45;1.90;;;8.50;90.90;;;;;;2095053;28;20033;-93
2021/10/16 04:42:00;;;;;;;6.15;1.73;;;8.50;90.90;;;;;;2085470;28;20132;-92
2021/10/16 04:43:05;;;;;;;5.13;1.55;;;8.50;90.90;;;;;;2082855;28;20025;-93
2021/10/16 04:44:06;;;;;;;4.25;1.73;;;8.50;90.90;;;;;;2084811;28;20047;-93
2021/10/16 04:45:07;;;;;;;4.22;1.75;;;8.50;90.90;;;;;;2075568;28;20423;-93
2021/10/16 04:46:10;;;;;;;5.18;1.80;;;8.50;90.90;;;;;;2083178;28;20046;-93
2021/10/16 04:47:11;;;;;;;3.30;1.35;;;8.50;90.90;;;;;;2082976;28;20496;-94
2021/10/16 04:48:12;;;;;;;4.18;1.52;;;8.50;90.90;;;;;;2081359;28;20053;-93
2021/10/16 04:49:13;;;;;;;3.50;1.50;;;8.50;90.90;;;;;;2082957;28;20072;-93
2021/10/16 04:50:13;;;;;;;5.53;1.70;;;8.50;90.90;;;;;;2091156;28;20103;-94
2021/10/16 04:51:14;;;;;;;4.97;1.60;;;8.50;90.90;;;;;;2091234;28;20041;-93
2021/10/16 04:52:15;;;;;;;5.70;1.98;;;8.50;91.00;;;;;;2091747;28;20037;-93
2021/10/16 04:53:15;;;;;;;3.10;1.60;;;8.50;90.90;;;;;;2084699;28;20033;-93
2021/10/16 04:54:16;;;;;;;5.22;1.77;;;8.50;90.90;;;;;;2082762;28;20044;-93
2021/10/16 04:55:17;;;;;;;3.17;1.42;;;8.50;90.90;;;;;;2072150;28;20496;-93
2021/10/16 04:56:17;;;;;;;3.80;1.42;;;8.50;90.90;;;;;;2077141;28;20120;-94
2021/10/16 04:57:18;;;;;;;4.57;1.63;;;8.60;91.00;;;;;;2065275;28;20034;-93
2021/10/16 04:58:19;;;;;;;5.20;1.70;;;8.60;91.00;;;;;;2066403;28;20045;-93
2021/10/16 04:59:19;;;;;;;4.20;1.30;;;8.60;91.00;;;;;;2066165;28;20037;-93
2021/10/16 05:00:20;;;;;;;3.70;1.27;;;8.60;91.00;;;;;;2065962;28;20440;-93
2021/10/16 05:01:20;;;;;;;4.22;1.30;;;8.60;91.00;;;;;;2066213;28;20077;-94
2021/10/16 05:02:24;;;;;;;3.30;1.40;;;8.60;91.20;;;;;;2082704;28;20048;-94
2021/10/16 05:03:24;;;;;;;3.70;1.20;;;8.60;91.00;;;;;;2091285;28;20418;-93
2021/10/16 05:04:25;;;;;;;3.72;1.33;;;8.60;91.00;;;;;;2082828;28;20068;-93
2021/10/16 05:05:27;;;;;;;3.85;1.30;;;8.60;91.00;;;;;;2082962;28;20041;-92
2021/10/16 05:06:32;;;;;;;4.55;1.50;;;8.60;91.00;;;;;;2091561;28;20044;-93
2021/10/16 05:07:32;;;;;;;4.55;1.40;;;8.60;91.00;;;;;;2090237;28;20082;-93
2021/10/16 05:08:35;;;;;;;3.80;0.93;;;8.60;91.00;;;;;;2091090;28;20124;-93
2021/10/16 05:09:36;;;;;;;2.75;1.20;;;8.60;91.00;;;;;;2097584;28;20033;-94
2021/10/16 05:10:37;;;;;;;3.50;1.13;;;8.60;91.00;;;;;;2094684;28;20051;-92
2021/10/16 05:11:37;;;;;;;3.25;1.10;;;8.60;91.00;;;;;;2098224;28;20113;-93
2021/10/16 05:12:38;;;;;;;3.17;1.08;;;8.60;91.00;;;;;;2100459;28;20013;-89
2021/10/16 05:13:39;;;;;;;4.03;1.00;;;8.60;91.00;;;;;;2092486;28;20041;-95
2021/10/16 05:14:39;;;;;;;2.88;1.08;;;8.60;91.00;;;;;;2075076;28;20041;-93
2021/10/16 05:15:40;;;;;;;4.18;1.15;;;8.60;91.00;;;;;;2082335;28;20030;-93
2021/10/16 05:16:40;;;;;;;3.30;1.00;;;8.60;91.00;;;;;;2091229;28;20043;-94
2021/10/16 05:17:41;;;;;;;4.78;1.27;;;8.60;91.30;;;;;;2082740;28;20064;-95
2021/10/16 05:18:42;;;;;;;2.70;1.00;;;8.60;91.00;;;;;;2082704;28;20084;-93
2021/10/16 05:19:43;;;;;;;2.28;0.93;;;8.60;91.00;;;;;;2086982;28;20148;-93
2021/10/16 05:20:43;;;;;;;4.30;1.00;;;8.60;91.00;;;;;;2073770;28;20443;-94
2021/10/16 05:21:44;;;;;;;5.35;1.10;;;8.70;91.10;;;;;;2082023;28;20128;-93
2021/10/16 05:22:45;;;;;;;2.78;1.02;;;8.70;91.10;;;;;;2091248;28;20376;-92